sensor_id;sensor_type;location;lat;lon;timestamp;P1;durP1;ratioP1;P2;durP2;ratioP2
19867;SDS011;10096;51.112;6.776;2024-02-26T00:01:27;3.00;;;2.03;;
19867;SDS011;10096;51.112;6.776;2024-02-26T00:03:54;3.57;;;2.30;;
19867;SDS011;10096;51.112;6.776;2024-02-26T00:06:24;3.37;;;2.60;;
19867;SDS011;10096;51.112;6.776;2024-02-26T00:08:53;2.73;;;2.30;;
19867;SDS011;10096;51.112;6.776;2024-02-26T00:11:19;1.87;;;1.60;;
19867;SDS011;10096;51.112;6.776;2024-02-26T00:13:46;1.80;;;1.70;;
19867;SDS011;10096;51.112;6.776;2024-02-26T00:16:13;2.83;;;2.10;;
19867;SDS011;10096;51.112;6.776;2024-02-26T00:18:44;5.00;;;2.00;;
19867;SDS011;10096;51.112;6.776;2024-02-26T00:21:14;3.43;;;1.97;;
19867;SDS011;10096;51.112;6.776;2024-02-26T00:23:41;1.70;;;1.60;;
19867;SDS011;10096;51.112;6.776;2024-02-26T00:26:09;1.87;;;1.63;;
19867;SDS011;10096;51.112;6.776;2024-02-26T00:28:40;1.93;;;1.73;;
19867;SDS011;10096;51.112;6.776;2024-02-26T00:31:07;3.13;;;1.93;;
19867;SDS011;10096;51.112;6.776;2024-02-26T00:33:33;2.50;;;1.87;;
19867;SDS011;10096;51.112;6.776;2024-02-26T00:36:04;2.30;;;1.80;;
19867;SDS011;10096;51.112;6.776;2024-02-26T00:38:32;2.57;;;2.10;;
19867;SDS011;10096;51.112;6.776;2024-02-26T00:40:59;3.67;;;1.93;;
19867;SDS011;10096;51.112;6.776;2024-02-26T00:43:30;2.43;;;1.93;;
19867;SDS011;10096;51.112;6.776;2024-02-26T00:45:57;2.17;;;1.97;;
19867;SDS011;10096;51.112;6.776;2024-02-26T00:48:24;2.73;;;2.20;;
19867;SDS011;10096;51.112;6.776;2024-02-26T00:50:52;2.40;;;2.20;;
19867;SDS011;10096;51.112;6.776;2024-02-26T00:53:19;2.57;;;2.37;;
19867;SDS011;10096;51.112;6.776;2024-02-26T00:55:46;3.33;;;2.30;;
19867;SDS011;10096;51.112;6.776;2024-02-26T00:58:13;2.90;;;1.90;;
19867;SDS011;10096;51.112;6.776;2024-02-26T01:00:41;3.43;;;1.80;;
19867;SDS011;10096;51.112;6.776;2024-02-26T01:03:08;2.30;;;2.10;;
19867;SDS011;10096;51.112;6.776;2024-02-26T01:05:35;2.30;;;1.60;;
19867;SDS011;10096;51.112;6.776;2024-02-26T01:08:03;2.33;;;1.87;;
19867;SDS011;10096;51.112;6.776;2024-02-26T01:10:30;2.03;;;1.80;;
19867;SDS011;10096;51.112;6.776;2024-02-26T01:12:57;2.63;;;2.00;;
19867;SDS011;10096;51.112;6.776;2024-02-26T01:15:24;2.73;;;1.77;;
19867;SDS011;10096;51.112;6.776;2024-02-26T01:17:52;2.37;;;1.50;;
19867;SDS011;10096;51.112;6.776;2024-02-26T01:20:19;2.13;;;1.43;;
19867;SDS011;10096;51.112;6.776;2024-02-26T01:22:49;1.47;;;1.37;;
19867;SDS011;10096;51.112;6.776;2024-02-26T01:25:16;1.10;;;1.10;;
19867;SDS011;10096;51.112;6.776;2024-02-26T01:27:44;2.43;;;1.80;;
19867;SDS011;10096;51.112;6.776;2024-02-26T01:30:13;2.00;;;1.40;;
19867;SDS011;10096;51.112;6.776;2024-02-26T01:32:41;1.43;;;1.33;;
19867;SDS011;10096;51.112;6.776;2024-02-26T01:35:10;1.50;;;1.40;;
19867;SDS011;10096;51.112;6.776;2024-02-26T01:37:37;1.90;;;1.47;;
19867;SDS011;10096;51.112;6.776;2024-02-26T01:40:09;1.43;;;1.33;;
19867;SDS011;10096;51.112;6.776;2024-02-26T01:42:39;1.60;;;1.50;;
19867;SDS011;10096;51.112;6.776;2024-02-26T01:45:06;2.53;;;1.40;;
19867;SDS011;10096;51.112;6.776;2024-02-26T01:47:51;1.40;;;1.30;;
19867;SDS011;10096;51.112;6.776;2024-02-26T01:50:22;3.00;;;1.60;;
19867;SDS011;10096;51.112;6.776;2024-02-26T01:52:50;2.03;;;1.30;;
19867;SDS011;10096;51.112;6.776;2024-02-26T01:55:18;2.00;;;1.37;;
19867;SDS011;10096;51.112;6.776;2024-02-26T01:57:48;1.73;;;1.20;;
19867;SDS011;10096;51.112;6.776;2024-02-26T02:00:21;1.30;;;1.20;;
19867;SDS011;10096;51.112;6.776;2024-02-26T02:02:49;1.43;;;1.33;;
19867;SDS011;10096;51.112;6.776;2024-02-26T02:05:24;1.33;;;1.23;;
19867;SDS011;10096;51.112;6.776;2024-02-26T02:07:53;2.17;;;1.50;;
19867;SDS011;10096;51.112;6.776;2024-02-26T02:10:23;2.00;;;1.20;;
19867;SDS011;10096;51.112;6.776;2024-02-26T02:12:52;1.53;;;1.40;;
19867;SDS011;10096;51.112;6.776;2024-02-26T02:15:19;1.30;;;1.20;;
19867;SDS011;10096;51.112;6.776;2024-02-26T02:17:46;0.87;;;0.87;;
19867;SDS011;10096;51.112;6.776;2024-02-26T02:20:15;1.40;;;1.30;;
19867;SDS011;10096;51.112;6.776;2024-02-26T02:22:45;2.13;;;1.50;;
19867;SDS011;10096;51.112;6.776;2024-02-26T02:25:13;1.33;;;1.23;;
19867;SDS011;10096;51.112;6.776;2024-02-26T02:27:40;1.33;;;1.23;;
19867;SDS011;10096;51.112;6.776;2024-02-26T02:30:12;2.60;;;1.30;;
19867;SDS011;10096;51.112;6.776;2024-02-26T02:32:40;2.07;;;1.20;;
19867;SDS011;10096;51.112;6.776;2024-02-26T02:35:07;1.40;;;1.30;;
19867;SDS011;10096;51.112;6.776;2024-02-26T02:37:34;2.00;;;1.37;;
19867;SDS011;10096;51.112;6.776;2024-02-26T02:40:09;1.80;;;1.50;;
19867;SDS011;10096;51.112;6.776;2024-02-26T02:42:38;1.10;;;1.10;;
19867;SDS011;10096;51.112;6.776;2024-02-26T02:45:05;1.20;;;1.10;;
19867;SDS011;10096;51.112;6.776;2024-02-26T02:47:35;1.47;;;1.30;;
19867;SDS011;10096;51.112;6.776;2024-02-26T02:50:02;1.30;;;1.20;;
19867;SDS011;10096;51.112;6.776;2024-02-26T02:52:30;1.57;;;1.43;;
19867;SDS011;10096;51.112;6.776;2024-02-26T02:54:57;1.50;;;1.40;;
19867;SDS011;10096;51.112;6.776;2024-02-26T02:57:29;2.83;;;1.30;;
19867;SDS011;10096;51.112;6.776;2024-02-26T02:59:59;1.60;;;1.50;;
19867;SDS011;10096;51.112;6.776;2024-02-26T03:02:33;1.87;;;1.60;;
19867;SDS011;10096;51.112;6.776;2024-02-26T03:05:00;1.50;;;1.40;;
19867;SDS011;10096;51.112;6.776;2024-02-26T03:07:28;1.30;;;1.20;;
19867;SDS011;10096;51.112;6.776;2024-02-26T03:09:58;1.30;;;1.20;;
19867;SDS011;10096;51.112;6.776;2024-02-26T03:12:26;1.73;;;1.30;;
19867;SDS011;10096;51.112;6.776;2024-02-26T03:14:54;1.37;;;1.27;;
19867;SDS011;10096;51.112;6.776;2024-02-26T03:17:21;1.40;;;1.30;;
19867;SDS011;10096;51.112;6.776;2024-02-26T03:19:49;1.70;;;1.60;;
19867;SDS011;10096;51.112;6.776;2024-02-26T03:22:18;1.63;;;1.17;;
19867;SDS011;10096;51.112;6.776;2024-02-26T03:24:47;1.33;;;1.23;;
19867;SDS011;10096;51.112;6.776;2024-02-26T03:27:14;1.10;;;1.00;;
19867;SDS011;10096;51.112;6.776;2024-02-26T03:29:43;1.23;;;1.13;;
19867;SDS011;10096;51.112;6.776;2024-02-26T03:32:14;1.20;;;1.10;;
19867;SDS011;10096;51.112;6.776;2024-02-26T03:34:41;1.50;;;1.40;;
19867;SDS011;10096;51.112;6.776;2024-02-26T03:37:08;2.30;;;1.07;;
19867;SDS011;10096;51.112;6.776;2024-02-26T03:39:35;1.10;;;0.97;;
19867;SDS011;10096;51.112;6.776;2024-02-26T03:42:02;1.47;;;1.30;;
19867;SDS011;10096;51.112;6.776;2024-02-26T03:44:31;1.37;;;1.20;;
19867;SDS011;10096;51.112;6.776;2024-02-26T03:47:08;1.50;;;1.40;;
19867;SDS011;10096;51.112;6.776;2024-02-26T03:49:34;1.23;;;1.13;;
19867;SDS011;10096;51.112;6.776;2024-02-26T03:52:01;2.53;;;1.40;;
19867;SDS011;10096;51.112;6.776;2024-02-26T03:54:30;1.80;;;1.60;;
19867;SDS011;10096;51.112;6.776;2024-02-26T03:57:03;1.70;;;1.60;;
19867;SDS011;10096;51.112;6.776;2024-02-26T03:59:30;1.70;;;1.60;;
19867;SDS011;10096;51.112;6.776;2024-02-26T04:01:58;2.23;;;1.60;;
19867;SDS011;10096;51.112;6.776;2024-02-26T04:04:33;1.93;;;1.83;;
19867;SDS011;10096;51.112;6.776;2024-02-26T04:07:10;1.73;;;1.50;;
19867;SDS011;10096;51.112;6.776;2024-02-26T04:09:39;1.63;;;1.50;;
19867;SDS011;10096;51.112;6.776;2024-02-26T04:12:06;1.83;;;1.73;;
19867;SDS011;10096;51.112;6.776;2024-02-26T04:14:33;1.87;;;1.67;;
19867;SDS011;10096;51.112;6.776;2024-02-26T04:17:03;2.17;;;1.97;;
19867;SDS011;10096;51.112;6.776;2024-02-26T04:19:34;1.70;;;1.60;;
19867;SDS011;10096;51.112;6.776;2024-02-26T04:22:04;1.70;;;1.60;;
19867;SDS011;10096;51.112;6.776;2024-02-26T04:24:33;2.03;;;1.87;;
19867;SDS011;10096;51.112;6.776;2024-02-26T04:27:09;2.23;;;1.67;;
19867;SDS011;10096;51.112;6.776;2024-02-26T04:29:35;2.33;;;1.70;;
19867;SDS011;10096;51.112;6.776;2024-02-26T04:32:03;1.93;;;1.80;;
19867;SDS011;10096;51.112;6.776;2024-02-26T04:34:37;1.87;;;1.73;;
19867;SDS011;10096;51.112;6.776;2024-02-26T04:37:04;2.40;;;1.77;;
19867;SDS011;10096;51.112;6.776;2024-02-26T04:39:35;1.90;;;1.77;;
19867;SDS011;10096;51.112;6.776;2024-02-26T04:42:05;2.57;;;1.90;;
19867;SDS011;10096;51.112;6.776;2024-02-26T04:44:32;1.90;;;1.80;;
19867;SDS011;10096;51.112;6.776;2024-02-26T04:46:59;2.00;;;1.90;;
19867;SDS011;10096;51.112;6.776;2024-02-26T04:49:26;2.77;;;2.00;;
19867;SDS011;10096;51.112;6.776;2024-02-26T04:51:55;3.40;;;2.10;;
19867;SDS011;10096;51.112;6.776;2024-02-26T04:54:24;3.13;;;2.00;;
19867;SDS011;10096;51.112;6.776;2024-02-26T04:56:53;1.93;;;1.70;;
19867;SDS011;10096;51.112;6.776;2024-02-26T04:59:23;3.97;;;2.27;;
19867;SDS011;10096;51.112;6.776;2024-02-26T05:01:52;2.93;;;2.07;;
19867;SDS011;10096;51.112;6.776;2024-02-26T05:04:21;3.80;;;1.83;;
19867;SDS011;10096;51.112;6.776;2024-02-26T05:06:50;2.63;;;1.70;;
19867;SDS011;10096;51.112;6.776;2024-02-26T05:09:20;3.13;;;2.13;;
19867;SDS011;10096;51.112;6.776;2024-02-26T05:11:47;2.50;;;2.00;;
19867;SDS011;10096;51.112;6.776;2024-02-26T05:14:24;3.30;;;1.90;;
19867;SDS011;10096;51.112;6.776;2024-02-26T05:16:52;2.30;;;1.80;;
19867;SDS011;10096;51.112;6.776;2024-02-26T05:19:20;4.27;;;2.60;;
19867;SDS011;10096;51.112;6.776;2024-02-26T05:21:47;2.53;;;1.87;;
19867;SDS011;10096;51.112;6.776;2024-02-26T05:24:15;2.27;;;1.80;;
19867;SDS011;10096;51.112;6.776;2024-02-26T05:26:44;2.70;;;2.17;;
19867;SDS011;10096;51.112;6.776;2024-02-26T05:29:12;4.27;;;2.10;;
19867;SDS011;10096;51.112;6.776;2024-02-26T05:31:39;4.47;;;2.20;;
19867;SDS011;10096;51.112;6.776;2024-02-26T05:34:08;2.17;;;2.00;;
19867;SDS011;10096;51.112;6.776;2024-02-26T05:36:37;4.37;;;2.83;;
19867;SDS011;10096;51.112;6.776;2024-02-26T05:39:04;3.87;;;2.07;;
19867;SDS011;10096;51.112;6.776;2024-02-26T05:41:31;3.00;;;2.50;;
19867;SDS011;10096;51.112;6.776;2024-02-26T05:43:59;2.93;;;2.70;;
19867;SDS011;10096;51.112;6.776;2024-02-26T05:46:26;2.87;;;2.40;;
19867;SDS011;10096;51.112;6.776;2024-02-26T05:48:56;4.07;;;2.40;;
19867;SDS011;10096;51.112;6.776;2024-02-26T05:51:22;4.40;;;3.03;;
19867;SDS011;10096;51.112;6.776;2024-02-26T05:53:50;3.07;;;2.57;;
19867;SDS011;10096;51.112;6.776;2024-02-26T05:56:27;3.13;;;2.40;;
19867;SDS011;10096;51.112;6.776;2024-02-26T05:59:03;3.03;;;2.53;;
19867;SDS011;10096;51.112;6.776;2024-02-26T06:01:30;3.10;;;2.80;;
19867;SDS011;10096;51.112;6.776;2024-02-26T06:04:01;2.97;;;2.70;;
19867;SDS011;10096;51.112;6.776;2024-02-26T06:06:28;2.67;;;2.30;;
19867;SDS011;10096;51.112;6.776;2024-02-26T06:08:56;3.70;;;3.00;;
19867;SDS011;10096;51.112;6.776;2024-02-26T06:11:37;2.80;;;2.40;;
19867;SDS011;10096;51.112;6.776;2024-02-26T06:14:05;5.57;;;2.90;;
19867;SDS011;10096;51.112;6.776;2024-02-26T06:16:39;4.07;;;3.37;;
19867;SDS011;10096;51.112;6.776;2024-02-26T06:19:08;4.50;;;3.30;;
19867;SDS011;10096;51.112;6.776;2024-02-26T06:21:36;5.47;;;2.90;;
19867;SDS011;10096;51.112;6.776;2024-02-26T06:24:03;3.90;;;2.83;;
19867;SDS011;10096;51.112;6.776;2024-02-26T06:26:36;3.50;;;2.93;;
19867;SDS011;10096;51.112;6.776;2024-02-26T06:29:03;3.87;;;3.23;;
19867;SDS011;10096;51.112;6.776;2024-02-26T06:31:32;4.47;;;3.47;;
19867;SDS011;10096;51.112;6.776;2024-02-26T06:33:59;4.83;;;3.03;;
19867;SDS011;10096;51.112;6.776;2024-02-26T06:36:28;4.13;;;3.03;;
19867;SDS011;10096;51.112;6.776;2024-02-26T06:38:57;3.20;;;2.70;;
19867;SDS011;10096;51.112;6.776;2024-02-26T06:41:31;4.93;;;3.60;;
19867;SDS011;10096;51.112;6.776;2024-02-26T06:44:05;4.53;;;2.93;;
19867;SDS011;10096;51.112;6.776;2024-02-26T06:46:32;3.40;;;3.10;;
19867;SDS011;10096;51.112;6.776;2024-02-26T06:48:59;4.97;;;3.70;;
19867;SDS011;10096;51.112;6.776;2024-02-26T06:51:28;4.43;;;4.03;;
19867;SDS011;10096;51.112;6.776;2024-02-26T06:53:57;4.10;;;3.80;;
19867;SDS011;10096;51.112;6.776;2024-02-26T06:56:24;3.57;;;3.27;;
19867;SDS011;10096;51.112;6.776;2024-02-26T06:58:51;3.23;;;2.93;;
19867;SDS011;10096;51.112;6.776;2024-02-26T07:01:19;5.13;;;3.73;;
19867;SDS011;10096;51.112;6.776;2024-02-26T07:03:46;4.23;;;3.43;;
19867;SDS011;10096;51.112;6.776;2024-02-26T07:06:13;4.23;;;3.83;;
19867;SDS011;10096;51.112;6.776;2024-02-26T07:08:40;5.80;;;3.57;;
19867;SDS011;10096;51.112;6.776;2024-02-26T07:11:07;3.87;;;3.13;;
19867;SDS011;10096;51.112;6.776;2024-02-26T07:13:38;5.60;;;3.43;;
19867;SDS011;10096;51.112;6.776;2024-02-26T07:16:08;4.93;;;3.70;;
19867;SDS011;10096;51.112;6.776;2024-02-26T07:18:43;4.27;;;3.60;;
19867;SDS011;10096;51.112;6.776;2024-02-26T07:21:10;4.63;;;3.93;;
19867;SDS011;10096;51.112;6.776;2024-02-26T07:23:38;4.17;;;3.57;;
19867;SDS011;10096;51.112;6.776;2024-02-26T07:26:05;4.33;;;3.90;;
19867;SDS011;10096;51.112;6.776;2024-02-26T07:28:33;4.40;;;3.53;;
19867;SDS011;10096;51.112;6.776;2024-02-26T07:31:00;4.00;;;3.50;;
19867;SDS011;10096;51.112;6.776;2024-02-26T07:33:30;4.10;;;3.70;;
19867;SDS011;10096;51.112;6.776;2024-02-26T07:36:01;4.17;;;3.77;;
19867;SDS011;10096;51.112;6.776;2024-02-26T07:38:28;3.83;;;3.53;;
19867;SDS011;10096;51.112;6.776;2024-02-26T07:40:54;4.67;;;4.20;;
19867;SDS011;10096;51.112;6.776;2024-02-26T07:43:22;5.20;;;4.27;;
19867;SDS011;10096;51.112;6.776;2024-02-26T07:45:49;7.70;;;4.93;;
19867;SDS011;10096;51.112;6.776;2024-02-26T07:48:28;5.47;;;4.60;;
19867;SDS011;10096;51.112;6.776;2024-02-26T07:50:55;6.03;;;4.93;;
19867;SDS011;10096;51.112;6.776;2024-02-26T07:56:07;5.77;;;4.10;;
19867;SDS011;10096;51.112;6.776;2024-02-26T07:58:35;4.30;;;3.90;;
19867;SDS011;10096;51.112;6.776;2024-02-26T08:01:04;4.07;;;3.67;;
19867;SDS011;10096;51.112;6.776;2024-02-26T08:03:31;4.67;;;3.90;;
19867;SDS011;10096;51.112;6.776;2024-02-26T08:05:58;5.47;;;4.07;;
19867;SDS011;10096;51.112;6.776;2024-02-26T08:08:25;4.10;;;3.70;;
19867;SDS011;10096;51.112;6.776;2024-02-26T08:10:55;3.80;;;3.50;;
19867;SDS011;10096;51.112;6.776;2024-02-26T08:13:26;6.50;;;3.33;;
19867;SDS011;10096;51.112;6.776;2024-02-26T08:16:06;4.30;;;3.70;;
19867;SDS011;10096;51.112;6.776;2024-02-26T08:18:37;3.67;;;2.90;;
19867;SDS011;10096;51.112;6.776;2024-02-26T08:21:09;3.37;;;3.07;;
19867;SDS011;10096;51.112;6.776;2024-02-26T08:23:39;4.40;;;3.40;;
19867;SDS011;10096;51.112;6.776;2024-02-26T08:26:21;3.70;;;3.03;;
19867;SDS011;10096;51.112;6.776;2024-02-26T08:28:49;3.17;;;2.87;;
19867;SDS011;10096;51.112;6.776;2024-02-26T08:31:17;3.70;;;2.63;;
19867;SDS011;10096;51.112;6.776;2024-02-26T08:33:44;2.93;;;2.63;;
19867;SDS011;10096;51.112;6.776;2024-02-26T08:36:11;2.73;;;2.30;;
19867;SDS011;10096;51.112;6.776;2024-02-26T08:38:38;3.87;;;2.60;;
19867;SDS011;10096;51.112;6.776;2024-02-26T08:41:05;3.03;;;2.70;;
19867;SDS011;10096;51.112;6.776;2024-02-26T08:43:33;4.00;;;2.77;;
19867;SDS011;10096;51.112;6.776;2024-02-26T08:46:00;3.10;;;2.80;;
19867;SDS011;10096;51.112;6.776;2024-02-26T08:48:28;3.37;;;2.90;;
19867;SDS011;10096;51.112;6.776;2024-02-26T08:50:54;2.93;;;2.50;;
19867;SDS011;10096;51.112;6.776;2024-02-26T08:53:21;3.07;;;2.77;;
19867;SDS011;10096;51.112;6.776;2024-02-26T08:55:52;4.23;;;2.77;;
19867;SDS011;10096;51.112;6.776;2024-02-26T08:58:19;2.90;;;2.50;;
19867;SDS011;10096;51.112;6.776;2024-02-26T09:00:50;2.73;;;2.30;;
19867;SDS011;10096;51.112;6.776;2024-02-26T09:03:19;2.70;;;2.50;;
19867;SDS011;10096;51.112;6.776;2024-02-26T09:05:46;3.63;;;2.70;;
19867;SDS011;10096;51.112;6.776;2024-02-26T09:08:13;4.20;;;2.63;;
19867;SDS011;10096;51.112;6.776;2024-02-26T09:10:42;2.60;;;2.40;;
19867;SDS011;10096;51.112;6.776;2024-02-26T09:13:09;3.07;;;2.50;;
19867;SDS011;10096;51.112;6.776;2024-02-26T09:15:36;2.97;;;2.63;;
19867;SDS011;10096;51.112;6.776;2024-02-26T09:18:04;3.07;;;2.60;;
19867;SDS011;10096;51.112;6.776;2024-02-26T09:20:31;3.07;;;2.70;;
19867;SDS011;10096;51.112;6.776;2024-02-26T09:22:58;2.97;;;2.67;;
19867;SDS011;10096;51.112;6.776;2024-02-26T09:25:25;3.87;;;2.60;;
19867;SDS011;10096;51.112;6.776;2024-02-26T09:27:52;2.63;;;2.43;;
19867;SDS011;10096;51.112;6.776;2024-02-26T09:30:28;3.30;;;2.93;;
19867;SDS011;10096;51.112;6.776;2024-02-26T09:32:56;4.57;;;2.63;;
19867;SDS011;10096;51.112;6.776;2024-02-26T09:35:41;3.37;;;2.60;;
19867;SDS011;10096;51.112;6.776;2024-02-26T09:38:13;3.50;;;3.20;;
19867;SDS011;10096;51.112;6.776;2024-02-26T09:40:40;4.13;;;2.80;;
19867;SDS011;10096;51.112;6.776;2024-02-26T09:43:07;3.00;;;2.50;;
19867;SDS011;10096;51.112;6.776;2024-02-26T09:45:38;3.53;;;2.80;;
19867;SDS011;10096;51.112;6.776;2024-02-26T09:48:08;2.77;;;2.43;;
19867;SDS011;10096;51.112;6.776;2024-02-26T09:50:39;2.60;;;2.40;;
19867;SDS011;10096;51.112;6.776;2024-02-26T09:53:08;4.23;;;2.60;;
19867;SDS011;10096;51.112;6.776;2024-02-26T09:55:44;3.10;;;2.80;;
19867;SDS011;10096;51.112;6.776;2024-02-26T09:58:14;3.37;;;2.73;;
19867;SDS011;10096;51.112;6.776;2024-02-26T10:00:45;3.30;;;2.77;;
19867;SDS011;10096;51.112;6.776;2024-02-26T10:03:20;4.07;;;2.50;;
19867;SDS011;10096;51.112;6.776;2024-02-26T10:06:15;3.27;;;2.33;;
19867;SDS011;10096;51.112;6.776;2024-02-26T10:08:55;3.07;;;2.30;;
19867;SDS011;10096;51.112;6.776;2024-02-26T10:11:23;3.73;;;2.40;;
19867;SDS011;10096;51.112;6.776;2024-02-26T10:13:51;3.53;;;2.47;;
19867;SDS011;10096;51.112;6.776;2024-02-26T10:16:18;3.23;;;3.00;;
19867;SDS011;10096;51.112;6.776;2024-02-26T10:18:47;3.43;;;2.30;;
19867;SDS011;10096;51.112;6.776;2024-02-26T10:21:20;3.07;;;2.70;;
19867;SDS011;10096;51.112;6.776;2024-02-26T10:23:51;2.70;;;2.33;;
19867;SDS011;10096;51.112;6.776;2024-02-26T10:26:19;3.30;;;3.00;;
19867;SDS011;10096;51.112;6.776;2024-02-26T10:28:47;4.57;;;2.57;;
19867;SDS011;10096;51.112;6.776;2024-02-26T10:31:13;3.17;;;2.27;;
19867;SDS011;10096;51.112;6.776;2024-02-26T10:33:42;2.57;;;2.30;;
19867;SDS011;10096;51.112;6.776;2024-02-26T10:36:15;3.80;;;2.30;;
19867;SDS011;10096;51.112;6.776;2024-02-26T10:38:44;2.90;;;2.60;;
19867;SDS011;10096;51.112;6.776;2024-02-26T10:41:12;4.97;;;2.87;;
19867;SDS011;10096;51.112;6.776;2024-02-26T10:43:41;4.50;;;2.83;;
19867;SDS011;10096;51.112;6.776;2024-02-26T10:46:08;3.83;;;2.73;;
19867;SDS011;10096;51.112;6.776;2024-02-26T10:48:36;4.03;;;2.80;;
19867;SDS011;10096;51.112;6.776;2024-02-26T10:51:15;3.40;;;2.80;;
19867;SDS011;10096;51.112;6.776;2024-02-26T10:53:45;3.53;;;3.23;;
19867;SDS011;10096;51.112;6.776;2024-02-26T10:56:13;3.90;;;3.40;;
19867;SDS011;10096;51.112;6.776;2024-02-26T10:58:44;4.67;;;3.13;;
19867;SDS011;10096;51.112;6.776;2024-02-26T11:01:15;3.50;;;3.20;;
19867;SDS011;10096;51.112;6.776;2024-02-26T11:03:44;3.40;;;2.90;;
19867;SDS011;10096;51.112;6.776;2024-02-26T11:06:13;3.87;;;3.47;;
19867;SDS011;10096;51.112;6.776;2024-02-26T11:11:29;3.87;;;3.30;;
19867;SDS011;10096;51.112;6.776;2024-02-26T11:14:00;5.50;;;3.83;;
19867;SDS011;10096;51.112;6.776;2024-02-26T11:16:41;3.57;;;3.27;;
19867;SDS011;10096;51.112;6.776;2024-02-26T11:19:15;4.47;;;2.90;;
19867;SDS011;10096;51.112;6.776;2024-02-26T11:21:43;3.73;;;3.00;;
19867;SDS011;10096;51.112;6.776;2024-02-26T11:24:14;4.07;;;3.40;;
19867;SDS011;10096;51.112;6.776;2024-02-26T11:26:45;3.73;;;2.70;;
19867;SDS011;10096;51.112;6.776;2024-02-26T11:29:29;4.80;;;3.53;;
19867;SDS011;10096;51.112;6.776;2024-02-26T11:32:00;4.77;;;3.80;;
19867;SDS011;10096;51.112;6.776;2024-02-26T11:34:28;4.70;;;3.33;;
19867;SDS011;10096;51.112;6.776;2024-02-26T11:36:56;4.90;;;3.40;;
19867;SDS011;10096;51.112;6.776;2024-02-26T11:39:25;4.83;;;3.50;;
19867;SDS011;10096;51.112;6.776;2024-02-26T11:41:52;7.03;;;4.17;;
19867;SDS011;10096;51.112;6.776;2024-02-26T11:44:28;5.27;;;4.00;;
19867;SDS011;10096;51.112;6.776;2024-02-26T11:46:55;7.23;;;4.33;;
19867;SDS011;10096;51.112;6.776;2024-02-26T11:49:30;5.00;;;3.70;;
19867;SDS011;10096;51.112;6.776;2024-02-26T11:52:07;5.10;;;4.37;;
19867;SDS011;10096;51.112;6.776;2024-02-26T11:57:23;6.43;;;5.10;;
19867;SDS011;10096;51.112;6.776;2024-02-26T11:59:51;7.30;;;4.97;;
19867;SDS011;10096;51.112;6.776;2024-02-26T12:05:09;6.50;;;5.80;;
19867;SDS011;10096;51.112;6.776;2024-02-26T12:07:52;8.83;;;5.77;;
19867;SDS011;10096;51.112;6.776;2024-02-26T12:13:06;6.50;;;5.90;;
19867;SDS011;10096;51.112;6.776;2024-02-26T12:15:36;7.07;;;5.87;;
19867;SDS011;10096;51.112;6.776;2024-02-26T12:18:04;6.93;;;6.00;;
19867;SDS011;10096;51.112;6.776;2024-02-26T12:20:33;8.30;;;6.00;;
19867;SDS011;10096;51.112;6.776;2024-02-26T12:23:00;6.97;;;5.90;;
19867;SDS011;10096;51.112;6.776;2024-02-26T12:25:34;6.63;;;5.93;;
19867;SDS011;10096;51.112;6.776;2024-02-26T12:28:02;8.17;;;6.13;;
19867;SDS011;10096;51.112;6.776;2024-02-26T12:30:30;6.37;;;5.77;;
19867;SDS011;10096;51.112;6.776;2024-02-26T12:32:57;9.20;;;6.17;;
19867;SDS011;10096;51.112;6.776;2024-02-26T12:35:25;5.97;;;5.37;;
19867;SDS011;10096;51.112;6.776;2024-02-26T12:37:53;7.83;;;6.37;;
19867;SDS011;10096;51.112;6.776;2024-02-26T12:40:21;7.20;;;5.87;;
19867;SDS011;10096;51.112;6.776;2024-02-26T12:42:48;7.03;;;6.00;;
19867;SDS011;10096;51.112;6.776;2024-02-26T12:45:16;7.93;;;6.20;;
19867;SDS011;10096;51.112;6.776;2024-02-26T12:47:44;7.50;;;6.80;;
19867;SDS011;10096;51.112;6.776;2024-02-26T12:50:12;8.23;;;6.40;;
19867;SDS011;10096;51.112;6.776;2024-02-26T12:52:40;9.87;;;8.10;;
19867;SDS011;10096;51.112;6.776;2024-02-26T12:55:10;8.70;;;7.83;;
19867;SDS011;10096;51.112;6.776;2024-02-26T12:57:45;10.33;;;7.23;;
19867;SDS011;10096;51.112;6.776;2024-02-26T13:00:15;12.07;;;8.00;;
19867;SDS011;10096;51.112;6.776;2024-02-26T13:02:47;8.60;;;7.03;;
19867;SDS011;10096;51.112;6.776;2024-02-26T13:05:15;11.77;;;8.70;;
19867;SDS011;10096;51.112;6.776;2024-02-26T13:07:43;9.60;;;8.60;;
19867;SDS011;10096;51.112;6.776;2024-02-26T13:10:17;12.40;;;10.10;;
19867;SDS011;10096;51.112;6.776;2024-02-26T13:12:45;11.83;;;9.67;;
19867;SDS011;10096;51.112;6.776;2024-02-26T13:15:15;13.77;;;10.67;;
19867;SDS011;10096;51.112;6.776;2024-02-26T13:17:47;12.53;;;10.40;;
19867;SDS011;10096;51.112;6.776;2024-02-26T13:23:28;13.70;;;11.00;;
19867;SDS011;10096;51.112;6.776;2024-02-26T13:26:12;13.90;;;11.40;;
19867;SDS011;10096;51.112;6.776;2024-02-26T13:28:39;13.93;;;11.70;;
19867;SDS011;10096;51.112;6.776;2024-02-26T13:31:13;17.50;;;11.27;;
19867;SDS011;10096;51.112;6.776;2024-02-26T13:33:46;15.60;;;12.13;;
19867;SDS011;10096;51.112;6.776;2024-02-26T13:36:15;14.03;;;12.00;;
19867;SDS011;10096;51.112;6.776;2024-02-26T13:39:01;13.40;;;11.47;;
19867;SDS011;10096;51.112;6.776;2024-02-26T13:41:30;15.10;;;11.63;;
19867;SDS011;10096;51.112;6.776;2024-02-26T13:43:58;14.13;;;11.10;;
19867;SDS011;10096;51.112;6.776;2024-02-26T13:46:41;12.70;;;11.40;;
19867;SDS011;10096;51.112;6.776;2024-02-26T13:49:11;14.60;;;12.70;;
19867;SDS011;10096;51.112;6.776;2024-02-26T13:51:38;14.87;;;11.73;;
19867;SDS011;10096;51.112;6.776;2024-02-26T13:54:06;16.40;;;12.40;;
19867;SDS011;10096;51.112;6.776;2024-02-26T13:56:34;18.03;;;13.03;;
19867;SDS011;10096;51.112;6.776;2024-02-26T13:59:03;18.37;;;12.97;;
19867;SDS011;10096;51.112;6.776;2024-02-26T14:01:31;15.53;;;12.17;;
19867;SDS011;10096;51.112;6.776;2024-02-26T14:04:07;14.30;;;11.83;;
19867;SDS011;10096;51.112;6.776;2024-02-26T14:06:37;17.67;;;12.83;;
19867;SDS011;10096;51.112;6.776;2024-02-26T14:09:06;17.33;;;13.17;;
19867;SDS011;10096;51.112;6.776;2024-02-26T14:11:43;16.67;;;12.87;;
19867;SDS011;10096;51.112;6.776;2024-02-26T14:14:11;15.27;;;12.93;;
19867;SDS011;10096;51.112;6.776;2024-02-26T14:16:37;15.70;;;13.20;;
19867;SDS011;10096;51.112;6.776;2024-02-26T14:19:04;15.87;;;14.17;;
19867;SDS011;10096;51.112;6.776;2024-02-26T14:21:35;15.60;;;13.00;;
19867;SDS011;10096;51.112;6.776;2024-02-26T14:24:14;14.80;;;12.27;;
19867;SDS011;10096;51.112;6.776;2024-02-26T14:26:41;15.83;;;13.07;;
19867;SDS011;10096;51.112;6.776;2024-02-26T14:29:08;14.83;;;13.20;;
19867;SDS011;10096;51.112;6.776;2024-02-26T14:31:35;14.97;;;12.20;;
19867;SDS011;10096;51.112;6.776;2024-02-26T14:34:03;15.87;;;13.23;;
19867;SDS011;10096;51.112;6.776;2024-02-26T14:36:31;14.00;;;12.30;;
19867;SDS011;10096;51.112;6.776;2024-02-26T14:38:58;16.93;;;13.57;;
19867;SDS011;10096;51.112;6.776;2024-02-26T14:41:25;15.07;;;12.93;;
19867;SDS011;10096;51.112;6.776;2024-02-26T14:43:52;15.17;;;13.37;;
19867;SDS011;10096;51.112;6.776;2024-02-26T14:46:19;16.43;;;12.83;;
19867;SDS011;10096;51.112;6.776;2024-02-26T14:48:46;16.10;;;12.97;;
19867;SDS011;10096;51.112;6.776;2024-02-26T14:51:11;16.57;;;13.17;;
19867;SDS011;10096;51.112;6.776;2024-02-26T14:53:41;14.70;;;12.97;;
19867;SDS011;10096;51.112;6.776;2024-02-26T14:56:08;14.43;;;12.57;;
19867;SDS011;10096;51.112;6.776;2024-02-26T14:58:35;14.23;;;12.70;;
19867;SDS011;10096;51.112;6.776;2024-02-26T15:01:03;14.83;;;12.30;;
19867;SDS011;10096;51.112;6.776;2024-02-26T15:03:32;13.60;;;12.20;;
19867;SDS011;10096;51.112;6.776;2024-02-26T15:05:59;14.97;;;11.40;;
19867;SDS011;10096;51.112;6.776;2024-02-26T15:08:28;15.00;;;12.23;;
19867;SDS011;10096;51.112;6.776;2024-02-26T15:11:03;13.03;;;10.87;;
19867;SDS011;10096;51.112;6.776;2024-02-26T15:13:33;11.73;;;10.53;;